FW0381 Weather Reports


time (UTC)temp
F
wind
direction
speed
knots
gust
knots
rain 1hr
in
rain 24hr
in
rain mn
in
humidity
%
barometer
mb
20260507161530 65 262 0.0 0.9 0.00 0.00 0.00 69 1017.3
20260507160014 64 264 0.0 3.5 0.00 0.00 0.00 69 1017.3
20260507154511 63 264 1.7 5.2 0.00 0.00 0.00 70 1017.4
20260507153010 62 262 0.9 3.5 0.00 0.00 0.00 73 1017.5
20260507151503 60 261 0.0 2.6 0.00 0.00 0.00 79 1017.4
20260507150106 59 261 0.9 2.6 0.00 0.00 0.00 87 1017.3
20260507144555 57 261 0.0 0.0 0.00 0.00 0.00 91 1017.2
20260507143100 55 261 0.0 0.0 0.00 0.00 0.00 93 1017.0
20260507141553 52 261 0.0 0.0 0.00 0.00 0.00 94 1017.0
20260507140046 50 261 0.0 0.0 0.00 0.00 0.00 95 1017.1
20260507134553 47 261 0.0 0.0 0.00 0.00 0.00 94 1017.0
20260507133045 46 261 0.0 0.0 0.00 0.00 0.00 93 1017.0
20260507131544 46 223 0.0 0.0 0.00 0.00 0.00 93 1017.0
20260507130044 46 223 0.0 0.0 0.00 0.00 0.00 92 1016.9
20260507124541 46 223 0.0 0.0 0.00 0.00 0.00 93 1016.7
20260507123040 46 223 0.0 0.0 0.00 0.00 0.00 92 1016.5
20260507121540 47 223 0.0 0.0 0.00 0.00 0.00 92 1016.5
20260507120038 47 223 0.0 0.0 0.00 0.00 0.00 92 1016.6
20260507114538 47 223 0.0 0.0 0.00 0.00 0.00 92 1016.6
20260507113035 47 223 0.0 0.0 0.00 0.00 0.00 92 1016.7
20260507111533 48 223 0.0 0.0 0.00 0.00 0.00 91 1016.6
20260507110045 48 223 0.0 0.9 0.00 0.00 0.00 92 1016.8
20260507104530 48 223 0.0 0.0 0.00 0.00 0.00 91 1016.7
20260507103030 48 223 0.0 0.0 0.00 0.00 0.00 92 1016.9
20260507101525 48 223 0.0 0.0 0.00 0.00 0.00 91 1017.1
20260507100023 49 223 0.0 0.0 0.00 0.00 0.00 91 1017.1
20260507094522 49 223 0.0 0.0 0.00 0.00 0.00 91 1017.2
20260507093020 49 223 0.0 0.0 0.00 0.00 0.00 90 1017.4
20260507091519 49 223 0.0 0.0 0.00 0.00 0.00 90 1017.4
20260507090024 50 223 0.0 0.0 0.00 0.00 0.00 90 1017.5
20260507084530 50 223 0.0 0.0 0.00 0.00 0.00 90 1017.6
20260507083014 50 223 0.0 0.0 0.00 0.00 0.00 89 1017.6
20260507081514 51 223 0.0 0.0 0.00 0.00 0.00 89 1017.9
20260507080009 51 223 0.0 0.0 0.00 0.00 0.00 88 1018.1
20260507074523 51 223 0.0 0.0 0.00 0.00 0.00 88 1018.0
20260507073007 52 223 0.0 0.0 0.00 0.00 0.00 87 1018.1
20260507071502 52 223 0.0 0.0 0.00 0.00 0.00 87 1018.3
20260507070108 52 223 0.0 0.0 0.00 0.00 0.00 86 1018.3
20260507064601 53 223 0.0 0.0 0.00 0.00 0.00 86 1018.3
20260507063100 53 223 0.0 0.0 0.00 0.00 0.00 85 1018.2
20260507061559 53 223 0.0 0.0 0.00 0.00 0.00 85 1018.3
20260507060110 54 223 0.0 0.0 0.00 0.00 0.00 84 1018.2
20260507054600 54 223 0.0 0.0 0.00 0.00 0.00 82 1018.2
20260507053057 54 223 0.0 0.0 0.00 0.00 0.00 82 1018.3
20260507051557 55 223 0.0 0.0 0.00 0.00 0.00 81 1018.3
20260507050059 55 223 0.0 0.0 0.00 0.00 0.00 80 1018.2
20260507044557 55 223 0.0 0.0 0.00 0.00 0.00 78 1018.2
20260507043059 57 223 0.0 0.0 0.00 0.00 0.00 77 1018.2
20260507041554 57 223 0.0 0.0 0.00 0.00 0.00 75 1018.2
20260507040054 58 223 0.0 0.0 0.00 0.00 0.00 73 1018.1
20260507034559 59 223 0.0 0.0 0.00 0.00 0.00 71 1017.9
20260507033053 60 223 0.0 0.0 0.00 0.00 0.00 69 1017.9
20260507031552 61 223 0.0 0.0 0.00 0.00 0.00 68 1017.8
20260507030052 62 223 0.0 0.0 0.00 0.00 0.00 66 1017.8
20260507024558 63 223 0.0 0.0 0.00 0.00 0.00 65 1017.5
20260507023053 63 223 0.0 1.7 0.00 0.00 0.00 64 1017.4
20260507021551 64 223 0.0 3.5 0.00 0.00 0.00 63 1017.3
20260507020053 65 224 0.9 4.3 0.00 0.00 0.00 62 1017.1
20260507014551 65 224 0.9 5.2 0.00 0.00 0.00 62 1017.1
20260507013049 66 224 2.6 5.2 0.00 0.00 0.00 62 1017.1
20260507011549 67 224 0.9 5.2 0.00 0.00 0.00 61 1016.9
20260507010105 67 224 2.6 5.2 0.00 0.00 0.00 59 1016.8
20260507004547 69 224 2.6 7.0 0.00 0.00 0.00 56 1016.8
20260507003047 71 223 0.0 3.5 0.00 0.00 0.00 56 1016.8
20260507001554 71 223 2.6 6.1 0.00 0.00 0.00 56 1016.5
20260507000046 71 223 1.7 5.2 0.00 0.00 0.00 55 1016.4
20260506234545 70 223 2.6 5.2 0.00 0.00 0.00 56 1016.3
20260506233057 71 223 2.6 5.2 0.00 0.00 0.00 55 1016.4
20260506231543 72 211 3.5 8.7 0.00 0.00 0.00 55 1016.5
20260506230045 72 227 0.9 5.2 0.00 0.00 0.00 54 1016.5
20260506224541 72 227 0.9 6.1 0.00 0.00 0.00 55 1016.7
20260506223043 72 227 3.5 8.7 0.00 0.00 0.00 54 1016.8
20260506221544 74 200 0.0 8.7 0.00 0.00 0.00 54 1016.8
20260506220045 73 224 0.0 7.0 0.00 0.00 0.00 53 1017.0
20260506214535 75 224 0.0 6.1 0.00 0.00 0.00 51 1017.1
20260506213035 74 223 5.2 7.8 0.00 0.00 0.00 51 1017.3
20260506211535 74 223 3.5 7.8 0.00 0.00 0.00 48 1017.3
20260506210030 76 182 0.9 3.5 0.00 0.00 0.00 48 1017.3
20260506204526 74 284 0.9 8.7 0.00 0.00 0.00 50 1017.5
20260506203027 74 245 0.9 4.3 0.00 0.00 0.00 43 1017.6
20260506201524 73 327 2.6 7.0 0.00 0.00 0.00 46 1017.9
20260506200017 73 269 1.7 6.1 0.00 0.00 0.00 46 1018.1
20260506194514 72 323 2.6 9.6 0.00 0.00 0.00 46 1018.2
20260506193011 71 355 2.6 5.2 0.00 0.00 0.00 47 1018.4
20260506191507 70 213 0.0 5.2 0.00 0.00 0.00 50 1018.7
20260506190006 69 325 1.7 5.2 0.00 0.00 0.00 53 1018.8
20260506184506 68 321 0.9 5.2 0.00 0.00 0.00 51 1019.0
20260506183108 68 323 2.6 7.8 0.00 0.00 0.00 53 1019.1
20260506181559 68 360 2.6 7.0 0.00 0.00 0.00 53 1019.3
20260506180056 66 337 0.9 7.0 0.00 0.00 0.00 55 1019.4
20260506174600 65 320 0.0 8.7 0.00 0.01 0.00 57 1019.3
20260506173106 64 210 0.0 3.5 0.00 0.01 0.00 60 1019.4
20260506171549 64 210 0.0 3.5 0.00 0.01 0.00 62 1019.6
20260506170046 62 209 1.7 5.2 0.00 0.01 0.00 63 1019.6
20260506164540 61 199 0.0 6.1 0.00 0.01 0.00 67 1019.6
20260506163042 60 55 1.7 5.2 0.00 0.01 0.00 68 1019.5